Time;durP1;ratioP1;P1;durP2;ratioP2;P2;SDS_P1;SDS_P2;PMS_P1;PMS_P2;Temp;Humidity;BMP_temperature;BMP_pressure;BME280_temperature;BME280_humidity;BME280_pressure;Samples;Min_cycle;Max_cycle;Signal;HPM_P1;HPM_P2
2022/08/07 00:00:06;;;;;;;16.80;13.75;;;;;;;9.94;99.51;102616.94;2062512;28;30588;-72
2022/08/07 00:01:13;;;;;;;18.27;13.95;;;;;;;9.92;99.73;102609.78;2056592;28;20082;-72
2022/08/07 00:02:35;;;;;;;19.15;14.10;;;;;;;9.90;99.98;102608.88;2055714;28;20034;-72
2022/08/07 00:03:40;;;;;;;19.75;14.13;;;;;;;9.90;99.83;102615.13;2055744;28;31371;-72
2022/08/07 00:04:48;;;;;;;19.63;14.23;;;;;;;9.89;100.00;102616.03;2056762;28;20071;-72
2022/08/07 00:05:52;;;;;;;19.35;14.20;;;;;;;9.88;100.00;102614.22;2055990;28;27779;-72
2022/08/07 00:06:53;;;;;;;18.00;13.93;;;;;;;9.88;99.99;102613.31;2055978;28;30469;-72
2022/08/07 00:07:55;;;;;;;20.08;14.82;;;;;;;9.87;100.00;102607.09;2062977;28;25262;-71
2022/08/07 00:09:02;;;;;;;21.55;15.13;;;;;;;9.91;100.00;102608.91;2063586;28;20145;-72
2022/08/07 00:10:17;;;;;;;20.35;14.63;;;;;;;9.89;100.00;102609.78;2056003;28;29712;-72
2022/08/07 00:11:27;;;;;;;18.90;14.70;;;;;;;9.90;100.00;102611.56;2055559;28;30328;-72
2022/08/07 00:12:30;;;;;;;18.08;14.45;;;;;;;9.90;100.00;102609.75;2055257;28;29427;-72
2022/08/07 00:13:33;;;;;;;21.05;14.75;;;;;;;9.89;100.00;102608.00;2056134;28;32656;-72
2022/08/07 00:14:35;;;;;;;18.63;14.27;;;;;;;9.91;100.00;102603.53;2055378;28;23463;-72
2022/08/07 00:15:37;;;;;;;16.65;13.77;;;;;;;9.92;100.00;102607.09;2055227;28;38221;-72
2022/08/07 00:16:47;;;;;;;21.33;14.30;;;;;;;9.94;100.00;102608.00;2056660;28;28773;-72
2022/08/07 00:17:54;;;;;;;19.48;14.68;;;;;;;9.92;100.00;102607.09;2055866;28;30311;-72
2022/08/07 00:18:56;;;;;;;19.15;14.43;;;;;;;9.92;100.00;102602.69;2054886;28;37984;-72
2022/08/07 00:19:58;;;;;;;18.95;14.82;;;;;;;9.94;100.00;102603.56;2055730;28;21034;-72
2022/08/07 00:21:07;;;;;;;19.05;14.00;;;;;;;9.94;100.00;102602.66;2063385;28;24441;-72
2022/08/07 00:22:29;;;;;;;18.17;14.15;;;;;;;9.93;100.00;102600.88;2060552;28;20125;-72
2022/08/07 00:23:40;;;;;;;18.95;14.02;;;;;;;9.91;100.00;102605.34;2054349;28;38982;-72
2022/08/07 00:24:44;;;;;;;18.42;14.27;;;;;;;9.89;100.00;102605.31;2055789;28;22905;-72
2022/08/07 00:25:46;;;;;;;17.98;13.15;;;;;;;9.88;100.00;102600.84;2055866;28;24684;-72
2022/08/07 00:26:55;;;;;;;17.83;13.45;;;;;;;9.86;100.00;102599.06;2056659;28;20165;-72
2022/08/07 00:28:00;;;;;;;18.60;14.40;;;;;;;9.84;100.00;102596.38;2056323;28;21574;-72
2022/08/07 00:29:02;;;;;;;18.80;14.18;;;;;;;9.82;100.00;102598.13;2056430;28;20111;-72
2022/08/07 00:30:04;;;;;;;18.75;13.93;;;;;;;9.81;100.00;102599.00;2056353;28;21043;-70
2022/08/07 00:31:09;;;;;;;18.92;14.15;;;;;;;9.80;100.00;102596.31;2054932;28;35203;-72
2022/08/07 00:32:13;;;;;;;16.85;13.05;;;;;;;9.78;100.00;102592.75;2055923;28;20093;-72
2022/08/07 00:33:16;;;;;;;19.83;14.20;;;;;;;9.74;100.00;102591.81;2055153;28;20784;-72
2022/08/07 00:34:17;;;;;;;20.13;14.07;;;;;;;9.70;100.00;102590.91;2055904;28;20047;-72
2022/08/07 00:35:20;;;;;;;18.75;12.85;;;;;;;9.67;100.00;102590.00;2063884;28;20863;-72
2022/08/07 00:36:23;;;;;;;17.42;12.88;;;;;;;9.62;100.00;102592.66;2056191;28;20044;-72
2022/08/07 00:37:25;;;;;;;20.60;14.07;;;;;;;9.60;100.00;102593.50;2047345;28;20813;-72
2022/08/07 00:38:31;;;;;;;18.30;13.45;;;;;;;9.59;100.00;102591.72;2048306;28;20120;-72
2022/08/07 00:39:34;;;;;;;18.67;14.18;;;;;;;9.58;100.00;102600.63;2063308;28;24344;-72
2022/08/07 00:40:36;;;;;;;19.55;14.02;;;;;;;9.58;100.00;102601.50;2064070;28;20078;-72
2022/08/07 00:41:54;;;;;;;19.95;14.75;;;;;;;9.57;100.00;102594.38;2047019;28;20031;-72
2022/08/07 00:43:03;;;;;;;19.67;14.75;;;;;;;9.57;100.00;102597.06;2045406;28;20051;-70
2022/08/07 00:44:07;;;;;;;19.85;14.23;;;;;;;9.57;100.00;102602.41;2057484;28;22237;-72
2022/08/07 00:45:10;;;;;;;16.65;12.32;;;;;;;9.59;100.00;102594.41;2063572;28;20046;-70
2022/08/07 00:46:17;;;;;;;15.75;12.32;;;;;;;9.53;100.00;102589.91;2055377;28;20047;-70
2022/08/07 00:47:21;;;;;;;17.27;12.48;;;;;;;9.51;100.00;102599.66;2055488;28;20786;-70
2022/08/07 00:48:42;;;;;;;17.40;13.40;;;;;;;9.50;100.00;102597.91;2063280;28;20047;-70
2022/08/07 00:49:44;;;;;;;19.40;14.30;;;;;;;9.54;100.00;102592.56;2062827;28;25977;-71
2022/08/07 00:51:07;;;;;;;16.95;13.57;;;;;;;9.55;100.00;102585.47;2055612;28;20046;-72
2022/08/07 00:52:09;;;;;;;20.02;14.10;;;;;;;9.51;100.00;102583.63;2055194;28;23626;-71
2022/08/07 00:53:10;;;;;;;19.73;14.70;;;;;;;9.47;100.00;102589.84;2054573;28;29088;-72
2022/08/07 00:54:14;;;;;;;19.48;14.25;;;;;;;9.47;100.00;102587.16;2055591;28;20734;-72
2022/08/07 00:55:16;;;;;;;18.70;13.40;;;;;;;9.45;100.00;102587.16;2062850;28;22495;-71
2022/08/07 00:56:27;;;;;;;17.88;12.63;;;;;;;9.46;100.00;102596.09;2055289;28;20832;-70
2022/08/07 00:57:31;;;;;;;19.55;14.20;;;;;;;9.41;100.00;102593.38;2053175;28;31453;-72
2022/08/07 00:58:34;;;;;;;15.57;12.20;;;;;;;9.40;100.00;102588.88;2048070;28;20074;-72
2022/08/07 00:59:36;;;;;;;19.88;14.23;;;;;;;9.35;100.00;102591.53;2055948;28;20261;-72
2022/08/07 01:00:41;;;;;;;18.63;14.18;;;;;;;9.33;100.00;102595.06;2055649;28;20094;-71
2022/08/07 01:01:52;;;;;;;18.45;14.25;;;;;;;9.31;100.00;102587.06;2063262;28;20058;-72
2022/08/07 01:03:00;;;;;;;20.17;15.18;;;;;;;9.31;100.00;102591.47;2063161;28;20074;-72
2022/08/07 01:04:06;;;;;;;21.40;15.07;;;;;;;9.35;100.00;102601.34;2055488;28;20954;-72
2022/08/07 01:05:12;;;;;;;20.63;14.18;;;;;;;9.34;100.00;102588.84;2047652;28;27275;-70
2022/08/07 01:06:19;;;;;;;18.80;14.43;;;;;;;9.35;100.00;102598.66;2048963;28;20084;-70
2022/08/07 01:07:22;;;;;;;19.83;14.82;;;;;;;9.37;100.00;102596.91;2048447;28;20040;-70
2022/08/07 01:08:24;;;;;;;20.13;14.73;;;;;;;9.39;100.00;102592.47;2039149;28;20119;-71
2022/08/07 01:09:27;;;;;;;23.23;16.33;;;;;;;9.48;100.00;102588.97;2047016;28;20092;-71
2022/08/07 01:10:38;;;;;;;22.95;16.13;;;;;;;9.51;100.00;102586.28;2040404;28;21121;-71
2022/08/07 01:11:40;;;;;;;21.25;15.10;;;;;;;9.47;100.00;102588.03;2049054;28;20960;-71
2022/08/07 01:13:02;;;;;;;18.80;14.15;;;;;;;9.42;100.00;102589.81;2060695;28;20033;-71
2022/08/07 01:14:04;;;;;;;17.73;13.27;;;;;;;9.46;100.00;102588.94;2047268;28;20047;-71
2022/08/07 01:15:08;;;;;;;20.45;14.75;;;;;;;9.45;100.00;102587.16;2055301;28;20051;-71
2022/08/07 01:16:13;;;;;;;19.80;15.50;;;;;;;9.48;100.00;102583.63;2047153;28;20872;-70
2022/08/07 01:17:15;;;;;;;16.38;13.10;;;;;;;9.50;100.00;102579.19;2056177;28;20043;-70
2022/08/07 01:18:17;;;;;;;22.15;13.43;;;;;;;9.48;100.00;102586.28;2063315;28;20035;-71
2022/08/07 01:19:23;;;;;;;19.58;13.77;;;;;;;9.41;100.00;102588.00;2062645;28;20221;-71
2022/08/07 01:20:36;;;;;;;17.10;12.80;;;;;;;9.40;100.00;102583.53;2071082;28;20196;-71
2022/08/07 01:21:46;;;;;;;19.58;14.18;;;;;;;9.39;100.00;102581.75;2066789;28;20963;-70
2022/08/07 01:22:49;;;;;;;20.27;14.77;;;;;;;9.42;100.00;102587.16;2063345;28;20121;-70
2022/08/07 01:24:00;;;;;;;19.02;14.88;;;;;;;9.43;100.00;102582.69;2068125;28;20102;-71
2022/08/07 01:25:03;;;;;;;21.30;15.18;;;;;;;9.44;100.00;102588.03;2061316;28;20034;-70
2022/08/07 01:26:07;;;;;;;18.45;13.75;;;;;;;9.42;100.00;102584.47;2063318;28;20197;-71
2022/08/07 01:27:12;;;;;;;18.00;12.63;;;;;;;9.40;100.00;102586.22;2062731;28;20682;-71
2022/08/07 01:28:24;;;;;;;15.10;11.38;;;;;;;9.38;100.00;102584.41;2055226;28;20817;-72
2022/08/07 01:29:30;;;;;;;15.40;11.00;;;;;;;9.33;100.00;102584.38;2061979;28;21001;-71
2022/08/07 01:30:37;;;;;;;17.02;12.63;;;;;;;9.30;100.00;102581.69;2062646;28;20081;-71
2022/08/07 01:31:39;;;;;;;17.42;12.77;;;;;;;9.29;100.00;102587.91;2046864;28;20044;-71
2022/08/07 01:32:43;;;;;;;19.73;13.82;;;;;;;9.26;100.00;102580.78;2047112;28;20083;-71
2022/08/07 01:33:46;;;;;;;18.92;13.85;;;;;;;9.25;100.00;102584.31;2047662;28;20051;-71
2022/08/07 01:34:53;;;;;;;17.70;13.93;;;;;;;9.24;100.00;102592.31;2063418;28;20039;-71
2022/08/07 01:35:59;;;;;;;16.58;12.20;;;;;;;9.22;100.00;102586.94;2062861;28;20043;-71
2022/08/07 01:37:11;;;;;;;13.95;11.23;;;;;;;9.15;100.00;102583.34;2063214;28;20051;-71
2022/08/07 01:38:17;;;;;;;20.85;13.32;;;;;;;9.09;100.00;102585.94;2062224;28;20035;-71
2022/08/07 01:39:28;;;;;;;16.38;13.32;;;;;;;9.06;100.00;102585.00;2055115;28;20120;-71
2022/08/07 01:40:48;;;;;;;19.02;14.23;;;;;;;8.99;100.00;102584.06;2061740;28;20039;-73
2022/08/07 01:41:52;;;;;;;16.52;12.32;;;;;;;8.99;100.00;102584.06;2060235;28;20828;-71
2022/08/07 01:42:59;;;;;;;16.52;12.90;;;;;;;8.95;100.00;102582.22;2054282;28;20070;-70
2022/08/07 01:44:05;;;;;;;18.95;13.68;;;;;;;8.94;100.00;102584.00;2054851;28;20083;-71
2022/08/07 01:45:09;;;;;;;19.83;14.60;;;;;;;8.99;100.00;102578.72;2054039;28;20087;-73
2022/08/07 01:46:19;;;;;;;18.38;14.48;;;;;;;8.94;100.00;102583.13;2048198;28;20048;-73
2022/08/07 01:47:22;;;;;;;20.17;14.43;;;;;;;8.93;100.00;102576.88;2047532;28;20048;-73
2022/08/07 01:48:47;;;;;;;18.38;13.60;;;;;;;8.92;100.00;102587.56;2054891;28;20876;-73
2022/08/07 01:49:54;;;;;;;18.92;14.18;;;;;;;8.92;100.00;102580.44;2058750;28;20043;-71
2022/08/07 01:51:05;;;;;;;19.98;13.55;;;;;;;8.88;100.00;102583.97;2062881;28;20881;-72
2022/08/07 01:52:09;;;;;;;15.82;11.68;;;;;;;8.89;100.00;102580.41;2062405;28;20051;-73
2022/08/07 01:53:13;;;;;;;21.08;13.75;;;;;;;8.87;100.00;102578.59;2055147;28;20046;-71
2022/08/07 01:54:26;;;;;;;18.98;14.30;;;;;;;8.86;100.00;102590.16;2053364;28;20047;-71
2022/08/07 01:55:44;;;;;;;17.38;13.13;;;;;;;8.85;100.00;102580.38;2049687;28;20253;-72
2022/08/07 01:56:58;;;;;;;19.27;13.38;;;;;;;8.83;100.00;102579.44;2040766;28;20338;-71
2022/08/07 01:58:04;;;;;;;17.40;12.00;;;;;;;8.81;100.00;102576.78;2048514;28;20113;-72
2022/08/07 02:00:11;;;;;;;17.05;13.40;;;;;;;8.78;100.00;102584.72;2054688;28;20813;-72
2022/08/07 02:01:21;;;;;;;17.33;13.07;;;;;;;8.79;100.00;102574.06;2037640;29;39707;-72
2022/08/07 02:02:39;;;;;;;19.50;13.95;;;;;;;8.81;100.00;102570.50;2055054;28;20186;-72
2022/08/07 02:04:33;;;;;;;23.90;16.08;;;;;;;8.89;100.00;102571.50;2053550;28;20039;-72
2022/08/07 02:05:45;;;;;;;23.70;16.15;;;;;;;8.86;100.00;102571.47;2062975;28;20121;-72
2022/08/07 02:06:55;;;;;;;26.15;16.88;;;;;;;8.87;100.00;102586.63;2053331;28;20185;-70
2022/08/07 02:08:08;;;;;;;22.48;15.10;;;;;;;8.83;100.00;102583.00;2054854;28;20043;-72
2022/08/07 02:09:17;;;;;;;17.98;13.27;;;;;;;8.80;100.00;102574.97;2048216;28;20050;-72
2022/08/07 02:10:38;;;;;;;18.08;13.15;;;;;;;8.76;100.00;102579.38;2051136;28;20754;-72
2022/08/07 02:11:49;;;;;;;19.40;13.70;;;;;;;8.71;100.00;102573.09;2039785;28;20122;-72
2022/08/07 02:13:01;;;;;;;17.85;12.77;;;;;;;8.69;100.00;102574.84;2043855;28;20767;-71
2022/08/07 02:14:16;;;;;;;19.17;14.15;;;;;;;8.65;100.00;102570.34;2041872;28;20928;-72
2022/08/07 02:15:42;;;;;;;18.58;13.32;;;;;;;8.64;100.00;102573.88;2051040;28;20190;-72
2022/08/07 02:16:50;;;;;;;24.70;15.95;;;;;;;8.66;100.00;102569.47;2054600;28;20048;-72
2022/08/07 02:17:57;;;;;;;18.65;13.77;;;;;;;8.65;100.00;102565.00;2047016;28;20052;-72
2022/08/07 02:19:12;;;;;;;20.10;15.00;;;;;;;8.63;100.00;102571.19;2041536;28;22682;-72
2022/08/07 02:20:33;;;;;;;18.88;13.52;;;;;;;8.58;100.00;102565.81;2059225;28;20043;-72
2022/08/07 02:21:38;;;;;;;17.77;12.43;;;;;;;8.58;100.00;102564.03;2054534;28;20130;-72
2022/08/07 02:23:04;;;;;;;16.95;12.50;;;;;;;8.52;100.00;102561.28;2054936;28;20058;-72
2022/08/07 02:24:08;;;;;;;26.45;16.05;;;;;;;8.54;100.00;102569.31;2050359;28;20074;-72
2022/08/07 02:25:15;;;;;;;21.48;14.48;;;;;;;8.51;100.00;102570.19;2055772;28;20039;-72
2022/08/07 02:26:27;;;;;;;22.67;15.10;;;;;;;8.49;100.00;102565.69;2062780;28;20878;-72
2022/08/07 02:27:36;;;;;;;22.40;14.98;;;;;;;8.50;100.00;102565.72;2054724;28;20090;-71
2022/08/07 02:28:40;;;;;;;23.27;14.88;;;;;;;8.49;100.00;102565.69;2053353;28;20911;-71
2022/08/07 02:29:43;;;;;;;22.23;15.55;;;;;;;8.50;100.00;102562.16;2054533;28;20047;-72
2022/08/07 02:30:51;;;;;;;21.15;15.25;;;;;;;8.55;100.00;102557.78;2054860;28;20051;-72
2022/08/07 02:31:53;;;;;;;16.75;12.70;;;;;;;8.52;100.00;102560.41;2046792;28;20968;-72
2022/08/07 02:32:58;;;;;;;22.15;15.63;;;;;;;8.52;100.00;102557.72;2039433;28;25140;-71
2022/08/07 02:34:04;;;;;;;17.92;13.18;;;;;;;8.51;100.00;102558.63;2055537;28;20165;-72
2022/08/07 02:35:18;;;;;;;18.48;13.05;;;;;;;8.47;100.00;102559.44;2053053;28;20043;-72
2022/08/07 02:36:25;;;;;;;20.33;14.40;;;;;;;8.46;100.00;102557.66;2051447;28;20174;-72
2022/08/07 02:37:30;;;;;;;19.30;12.90;;;;;;;8.46;100.00;102555.00;2048393;28;20159;-72
2022/08/07 02:38:39;;;;;;;20.63;14.93;;;;;;;8.45;100.00;102558.53;2050109;28;20044;-72
2022/08/07 02:39:45;;;;;;;20.33;14.68;;;;;;;8.46;100.00;102561.22;2062778;28;20946;-73
2022/08/07 02:41:07;;;;;;;23.30;15.70;;;;;;;8.52;100.00;102558.63;2061103;28;20139;-72
2022/08/07 02:42:12;;;;;;;21.95;15.63;;;;;;;8.55;100.00;102555.09;2071157;28;20050;-72
2022/08/07 02:43:17;;;;;;;21.95;14.80;;;;;;;8.54;100.00;102564.91;2071246;28;20218;-72
2022/08/07 02:44:24;;;;;;;18.30;13.07;;;;;;;8.52;100.00;102560.41;2055828;28;20158;-72
2022/08/07 02:45:30;;;;;;;20.80;13.98;;;;;;;8.52;100.00;102560.41;2056140;28;20047;-72
2022/08/07 02:46:55;;;;;;;21.50;14.70;;;;;;;8.51;100.00;102558.63;2058884;28;20058;-72
2022/08/07 02:47:59;;;;;;;17.98;13.05;;;;;;;8.50;100.00;102556.81;2056091;28;20257;-72
2022/08/07 02:49:04;;;;;;;20.17;14.15;;;;;;;8.48;100.00;102561.25;2055667;28;20125;-72
2022/08/07 02:50:07;;;;;;;20.13;13.55;;;;;;;8.47;100.00;102556.78;2047912;28;20119;-72
2022/08/07 02:51:17;;;;;;;18.20;13.65;;;;;;;8.43;100.00;102549.63;2056173;28;20051;-72
2022/08/07 02:53:00;;;;;;;17.30;13.40;;;;;;;8.40;100.00;102555.78;2053439;28;20051;-72
2022/08/07 02:54:09;;;;;;;20.10;13.45;;;;;;;8.40;100.00;102556.69;2052734;28;20259;-72
2022/08/07 02:55:24;;;;;;;18.80;13.93;;;;;;;8.39;100.00;102557.53;2048075;28;20040;-72
2022/08/07 02:56:32;;;;;;;19.48;14.90;;;;;;;8.42;100.00;102551.41;2053390;28;20252;-72
2022/08/07 02:57:36;;;;;;;19.60;15.00;;;;;;;8.45;100.00;102550.53;2063441;28;25824;-72
2022/08/07 02:58:42;;;;;;;21.90;15.32;;;;;;;8.47;100.00;102555.03;2056132;28;20035;-72
2022/08/07 02:59:50;;;;;;;19.70;14.25;;;;;;;8.46;100.00;102557.66;2048152;28;20043;-72
2022/08/07 03:00:58;;;;;;;23.50;15.18;;;;;;;8.48;100.00;102553.25;2055848;28;20151;-72
2022/08/07 03:02:01;;;;;;;19.70;14.75;;;;;;;8.49;100.00;102547.91;2048935;28;20825;-72
2022/08/07 03:03:06;;;;;;;23.50;15.93;;;;;;;8.53;100.00;102548.84;2056089;28;20938;-72
2022/08/07 03:04:14;;;;;;;25.85;17.15;;;;;;;8.57;100.00;102548.88;2049483;28;20044;-72
2022/08/07 03:05:18;;;;;;;24.33;16.38;;;;;;;8.54;100.00;102553.28;2048596;28;20095;-72
2022/08/07 03:06:23;;;;;;;19.95;14.15;;;;;;;8.51;100.00;102556.84;2048339;28;20052;-72
2022/08/07 03:07:29;;;;;;;20.70;15.45;;;;;;;8.51;100.00;102558.63;2049338;28;20163;-72
2022/08/07 03:08:45;;;;;;;20.33;14.73;;;;;;;8.50;100.00;102560.38;2042906;28;20060;-71
2022/08/07 03:09:48;;;;;;;16.88;12.38;;;;;;;8.50;100.00;102559.47;2050240;28;20040;-72
2022/08/07 03:10:54;;;;;;;17.65;12.70;;;;;;;8.46;100.00;102558.56;2055978;28;20936;-72
2022/08/07 03:12:04;;;;;;;16.40;12.25;;;;;;;8.46;100.00;102552.31;2057538;28;20043;-74
2022/08/07 03:13:09;;;;;;;20.75;13.85;;;;;;;8.42;100.00;102559.41;2063295;28;20041;-72
2022/08/07 03:14:12;;;;;;;18.55;13.70;;;;;;;8.40;100.00;102551.34;2064126;28;20047;-72
2022/08/07 03:15:15;;;;;;;21.50;14.93;;;;;;;8.42;100.00;102559.41;2056061;28;20142;-72
2022/08/07 03:16:30;;;;;;;23.30;15.75;;;;;;;8.46;100.00;102550.53;2056541;28;20055;-72
2022/08/07 03:17:34;;;;;;;20.08;13.88;;;;;;;8.44;100.00;102560.31;2064313;28;20133;-72
2022/08/07 03:18:40;;;;;;;19.08;13.35;;;;;;;8.41;100.00;102554.91;2062792;28;20047;-72
2022/08/07 03:19:42;;;;;;;19.08;14.27;;;;;;;8.44;100.00;102557.66;2047774;28;20245;-72
2022/08/07 03:20:45;;;;;;;18.33;13.45;;;;;;;8.40;100.00;102550.47;2055937;28;20051;-72
2022/08/07 03:21:49;;;;;;;17.77;13.10;;;;;;;8.40;100.00;102559.34;2055208;28;20995;-72
2022/08/07 03:22:54;;;;;;;19.67;13.00;;;;;;;8.38;100.00;102554.84;2056084;28;20043;-72
2022/08/07 03:24:00;;;;;;;17.75;12.85;;;;;;;8.35;100.00;102558.38;2047601;28;20150;-72
2022/08/07 03:25:24;;;;;;;15.63;11.38;;;;;;;8.32;100.00;102557.47;2043200;28;20905;-73
2022/08/07 03:26:32;;;;;;;18.15;13.40;;;;;;;8.29;100.00;102561.00;2052011;28;20218;-73
2022/08/07 03:27:40;;;;;;;19.15;14.70;;;;;;;8.27;100.00;102560.06;2056645;28;20051;-72
2022/08/07 03:28:47;;;;;;;21.25;13.80;;;;;;;8.25;100.00;102553.81;2063018;28;20101;-72
2022/08/07 03:29:51;;;;;;;20.33;14.25;;;;;;;8.22;100.00;102561.78;2055731;28;20441;-72
2022/08/07 03:32:25;;;;;;;22.58;15.05;;;;;;;8.20;100.00;102559.09;2059809;28;20209;-72
2022/08/07 03:33:27;;;;;;;24.42;16.05;;;;;;;8.20;100.00;102563.53;2063387;28;20043;-72
2022/08/07 03:34:36;;;;;;;19.67;13.43;;;;;;;8.19;100.00;102561.75;2055959;28;20673;-73
2022/08/07 03:35:41;;;;;;;21.20;14.75;;;;;;;8.16;100.00;102559.03;2054541;28;20142;-72
2022/08/07 03:36:51;;;;;;;19.30;13.45;;;;;;;8.13;100.00;102554.56;2048344;28;20048;-72
2022/08/07 03:38:00;;;;;;;17.60;13.00;;;;;;;8.11;100.00;102555.41;2048936;28;20951;-72
2022/08/07 03:39:08;;;;;;;19.67;14.45;;;;;;;8.09;100.00;102558.03;2056638;28;20816;-72
2022/08/07 03:40:12;;;;;;;20.48;14.70;;;;;;;8.08;100.00;102555.38;2055217;28;20047;-74
2022/08/07 03:41:18;;;;;;;21.58;14.23;;;;;;;8.03;100.00;102561.53;2056151;28;20046;-72
2022/08/07 03:42:21;;;;;;;18.55;14.00;;;;;;;8.05;100.00;102568.66;2054659;28;20178;-72
2022/08/07 03:43:26;;;;;;;22.58;14.10;;;;;;;8.06;100.00;102566.03;2055880;28;20043;-72
2022/08/07 03:44:35;;;;;;;20.52;14.50;;;;;;;8.05;100.00;102564.22;2040804;28;20048;-72
2022/08/07 03:45:38;;;;;;;24.45;16.77;;;;;;;8.10;100.00;102558.97;2057281;28;20039;-71
2022/08/07 03:46:46;;;;;;;18.02;13.77;;;;;;;8.11;100.00;102558.97;2053424;28;20047;-72
2022/08/07 03:48:08;;;;;;;23.13;15.52;;;;;;;8.10;100.00;102557.19;2047868;28;20047;-71
2022/08/07 03:49:11;;;;;;;19.50;13.90;;;;;;;8.08;100.00;102556.28;2055995;28;20101;-72
2022/08/07 03:50:18;;;;;;;23.20;15.18;;;;;;;8.07;100.00;102558.91;2055423;28;20177;-71
2022/08/07 03:51:26;;;;;;;22.40;14.27;;;;;;;8.06;100.00;102560.69;2039798;29;20917;-71
2022/08/07 03:52:36;;;;;;;17.77;13.18;;;;;;;8.07;100.00;102556.25;2042418;28;20056;-72
2022/08/07 03:53:40;;;;;;;21.80;15.13;;;;;;;8.08;100.00;102552.72;2055455;28;20166;-72
2022/08/07 03:55:04;;;;;;;25.45;16.60;;;;;;;8.12;100.00;102554.53;2061387;28;20039;-72
2022/08/07 03:56:10;;;;;;;23.85;16.58;;;;;;;8.15;100.00;102558.16;2048219;28;20349;-72
2022/08/07 03:57:15;;;;;;;24.55;15.82;;;;;;;8.20;100.00;102552.84;2048232;28;20050;-72
2022/08/07 03:58:37;;;;;;;26.35;16.27;;;;;;;8.20;100.00;102559.09;2053176;28;20131;-72
2022/08/07 04:00:00;;;;;;;19.17;13.98;;;;;;;8.15;100.00;102560.81;2042548;28;20888;-72
2022/08/07 04:01:07;;;;;;;23.02;14.70;;;;;;;8.12;100.00;102558.09;2048288;28;20048;-72
2022/08/07 04:02:13;;;;;;;20.80;14.60;;;;;;;8.08;100.00;102556.28;2054806;28;20039;-72
2022/08/07 04:03:16;;;;;;;20.83;14.32;;;;;;;8.08;100.00;102564.28;2039727;28;20154;-72
2022/08/07 04:04:21;;;;;;;24.08;16.30;;;;;;;8.13;100.00;102558.97;2048056;28;20086;-72
2022/08/07 04:05:27;;;;;;;23.77;16.05;;;;;;;8.14;100.00;102558.13;2054321;28;20118;-72
2022/08/07 04:06:43;;;;;;;24.88;16.05;;;;;;;8.19;100.00;102562.63;2055055;28;20118;-72
2022/08/07 04:07:50;;;;;;;27.27;16.27;;;;;;;8.19;100.00;102562.63;2062990;28;20058;-72
2022/08/07 04:08:56;;;;;;;19.05;14.18;;;;;;;8.19;100.00;102564.41;2060966;28;20133;-72
2022/08/07 04:10:00;;;;;;;27.00;16.73;;;;;;;8.18;100.00;102566.19;2063347;28;20045;-72
2022/08/07 04:11:05;;;;;;;20.80;14.52;;;;;;;8.20;100.00;102563.53;2063378;28;20088;-72
2022/08/07 04:12:20;;;;;;;20.40;14.20;;;;;;;8.20;100.00;102558.19;2063280;28;20061;-72
2022/08/07 04:13:33;;;;;;;25.33;18.27;;;;;;;8.22;100.00;102561.78;2052566;28;20863;-72
2022/08/07 04:14:58;;;;;;;25.15;17.35;;;;;;;8.28;100.00;102556.53;2042864;28;20036;-72
2022/08/07 04:16:01;;;;;;;22.40;16.23;;;;;;;8.33;100.00;102568.16;2051277;28;20784;-72
2022/08/07 04:17:03;;;;;;;25.67;16.88;;;;;;;8.37;100.00;102561.09;2055264;28;20094;-72
2022/08/07 04:18:05;;;;;;;29.60;17.08;;;;;;;8.40;100.00;102563.81;2055660;28;20043;-72
2022/08/07 04:19:30;;;;;;;22.88;15.52;;;;;;;8.43;100.00;102553.16;2055688;28;20109;-72
2022/08/07 04:20:34;;;;;;;20.73;14.10;;;;;;;8.46;100.00;102563.88;2055565;28;20126;-72
2022/08/07 04:21:36;;;;;;;23.60;16.50;;;;;;;8.50;100.00;102559.47;2055394;28;20129;-72
2022/08/07 04:22:45;;;;;;;25.42;17.50;;;;;;;8.52;100.00;102560.41;2055691;28;20032;-72
2022/08/07 04:23:55;;;;;;;22.90;15.80;;;;;;;8.54;100.00;102558.63;2047487;28;20189;-72
2022/08/07 04:25:05;;;;;;;21.70;14.63;;;;;;;8.57;100.00;102562.22;2047883;28;20265;-72
2022/08/07 04:26:10;;;;;;;23.42;15.85;;;;;;;8.60;100.00;102558.72;2049501;28;20047;-72
2022/08/07 04:27:12;;;;;;;18.00;13.02;;;;;;;8.68;100.00;102562.34;2047359;28;20087;-72
2022/08/07 04:28:16;;;;;;;25.13;17.17;;;;;;;8.93;100.00;102559.94;2047688;28;20038;-72
2022/08/07 04:29:18;;;;;;;27.48;18.23;;;;;;;9.19;100.00;102560.22;2047186;28;20885;-72
2022/08/07 04:30:20;;;;;;;24.70;16.98;;;;;;;9.55;100.00;102567.63;2055440;28;20193;-71
2022/08/07 04:31:46;;;;;;;23.38;15.63;;;;;;;10.08;100.00;102568.84;2047679;28;20051;-72
2022/08/07 04:33:10;;;;;;;20.67;14.52;;;;;;;10.60;100.00;102570.88;2041900;28;21052;-72
2022/08/07 04:34:16;;;;;;;18.83;13.50;;;;;;;11.04;100.00;102564.75;2045105;28;20799;-72
2022/08/07 04:35:26;;;;;;;18.45;13.05;;;;;;;11.50;100.00;102560.28;2047925;28;20043;-72
2022/08/07 04:36:29;;;;;;;16.08;11.80;;;;;;;11.80;98.25;102564.72;2048130;28;20836;-72
2022/08/07 04:37:34;;;;;;;16.40;12.02;;;;;;;12.19;97.00;102561.06;2063183;28;20047;-72
2022/08/07 04:38:43;;;;;;;13.60;10.07;;;;;;;12.65;94.87;102553.69;2046392;28;20048;-72
2022/08/07 04:39:47;;;;;;;12.85;9.63;;;;;;;13.08;92.79;102558.78;2041640;28;20119;-72
2022/08/07 04:40:53;;;;;;;12.07;9.88;;;;;;;13.34;88.42;102558.63;2055320;28;20046;-72
2022/08/07 04:42:03;;;;;;;10.18;8.70;;;;;;;13.82;87.31;102556.38;2055610;28;20154;-72
2022/08/07 04:43:06;;;;;;;11.07;9.02;;;;;;;14.20;85.11;102564.94;2055398;28;20094;-72
2022/08/07 04:44:11;;;;;;;10.43;8.15;;;;;;;14.58;82.51;102559.09;2058537;28;20098;-72
2022/08/07 04:45:20;;;;;;;10.48;8.07;;;;;;;14.87;79.28;102560.47;2055759;28;20078;-72
2022/08/07 04:46:47;;;;;;;9.68;8.25;;;;;;;15.34;77.70;102556.13;2047447;28;20100;-72
2022/08/07 04:48:28;;;;;;;9.35;8.07;;;;;;;15.67;74.74;102559.16;2038411;28;20048;-73
2022/08/07 04:50:01;;;;;;;10.40;7.57;;;;;;;16.06;70.90;102561.16;2060902;28;20050;-72
2022/08/07 04:51:26;;;;;;;10.45;8.00;;;;;;;16.60;71.07;102560.94;2063417;28;20082;-73
2022/08/07 04:52:50;;;;;;;8.27;7.07;;;;;;;17.05;70.39;102554.50;2052634;28;20047;-72
2022/08/07 04:54:33;;;;;;;8.20;6.68;;;;;;;17.17;65.58;102559.63;2058702;28;20094;-71
2022/08/07 04:55:52;;;;;;;8.27;7.28;;;;;;;17.43;65.35;102555.38;2052280;28;20158;-72
2022/08/07 04:57:13;;;;;;;10.32;6.95;;;;;;;17.74;65.45;102556.31;2060055;28;20122;-72
2022/08/07 04:58:55;;;;;;;8.35;7.47;;;;;;;17.97;64.39;102560.28;2062523;28;20047;-72
2022/08/07 05:00:21;;;;;;;;;;;;;;;18.05;62.11;102560.94;2055676;28;20039;-72
2022/08/07 05:01:50;;;;;;;8.52;6.75;;;;;;;18.73;63.08;102560.75;2056278;28;19922;-72
2022/08/07 05:03:16;;;;;;;7.95;6.53;;;;;;;19.17;61.70;102553.91;2055164;28;20047;-71
2022/08/07 05:04:52;;;;;;;8.20;6.68;;;;;;;19.19;59.04;102562.03;2061492;28;20035;-72
2022/08/07 05:07:02;;;;;;;7.22;6.45;;;;;;;19.17;56.66;102558.47;2055540;28;20035;-72
2022/08/07 05:08:46;;;;;;;8.18;7.25;;;;;;;19.20;57.04;102547.50;2046830;28;21006;-72
2022/08/07 05:10:08;;;;;;;8.27;7.10;;;;;;;19.43;58.49;102544.91;2046902;28;20251;-72
2022/08/07 05:11:30;;;;;;;8.63;6.97;;;;;;;19.18;59.20;102554.81;2048840;28;20090;-72
2022/08/07 05:13:13;;;;;;;7.70;6.47;;;;;;;18.98;57.51;102559.06;2051831;28;20904;-72
2022/08/07 05:14:50;;;;;;;9.88;7.05;;;;;;;18.79;60.37;102555.13;2052699;28;20150;-72
2022/08/07 05:15:59;;;;;;;7.78;6.95;;;;;;;18.55;61.20;102554.06;2054990;28;20047;-72
2022/08/07 05:17:09;;;;;;;7.22;6.47;;;;;;;18.68;61.10;102553.66;2056441;28;20948;-72
2022/08/07 05:18:20;;;;;;;8.10;7.13;;;;;;;18.94;59.46;102554.66;2046418;28;20048;-72
2022/08/07 05:19:24;;;;;;;;;;;;;;;19.05;58.40;102551.59;2050723;28;20040;-72
2022/08/07 05:20:40;;;;;;;7.68;6.88;;;;;;;19.31;58.01;102552.56;2063510;28;19926;-72